Česky Dansk Deutsch English Español Suomi Français Magyar Italiano Nederlands norsk Polski Português svenska Türkçe

 

Het Weer

Rostov-Na-Donu (Rusland)

02:00, 15 augustus 2016 (GMT)

NWNNE
WE
SWSSE
Home            
Rostov-Na-Donu Donetsk Krasnodar Stavropol / Shpakovskoye Anapa / Vitiazevo Zaporizhzhia / Mokraya Elista Volgograd Kharkiv Dnipropetrovs'k Mineral'Nye Vody Adler Voronez Krivyy Rih / Dnipropetrovs'k Nalchik Simferopol Mykolaiv Cherkasy Astrakhan Saratov / Tsentralny Odesa Trabzon Muhrani

Om een weerknop op uw website of weblog te plaatsen, copieer onderstaande code en plak die in uw pagina. In het eerste vakje staat HTML-code, in het tweede vakje UBB-code.


Add to Google

Details

Wind speed:2 bf, 5.8 kn, 3 m/s, 6.7 miles/h, 10.8 km/h
Wind direction:SW, 230°
Visibility: 8000 m, 8.0 km, 26247 ft, 5.0 miles
Temperature:14°C, 57°F
Dew-point:11°C, 52°F
Atmospheric pressure:1016 hPa, 762.1 mmHg, 30.00 inHg, 1.003 atm
Relative humidity:82.1 %
METAR:URRR 150200Z 23003MPS 8000 NSC 14/11 Q1016 R22/CLRD70 NOSIG RMK QFE754/1006

Snelkoppelingen

Actuele weersinformatie van de hele wereld. Voeg locaties toe met het plus (+) symbool. Deze snelkoppelingen kunnen worden toegevoegd aan Google.

Lid van de Technetium groep

website free tracking
StatCounter NetStat W3C Validator

07-12-2022 10:30:58
astro.technetium.be money.technetium.be phote.technetium.be tafeltennistafel.technetium.be www.ligfiets.net